Time,TemperatureF,DewpointF,PressureIn,WindDirection,WindDirectionDegrees,WindSpeedMPH,WindSpeedGustMPH,Humidity,HourlyPrecipIn,Conditions,Clouds,dailyrainin,SolarRadiationWatts/m^2,SoftwareType,DateUTC
2013-09-28 00:06:00,61.7,44.9,29.95,West,275,0.0,0.0,54,0.00,,,0.00,0,Wunderground v.1.15,2013-09-28 07:06:00,
2013-09-28 00:15:00,61.4,45.1,29.95,West,275,0.0,0.0,55,0.00,,,0.00,0,Wunderground v.1.15,2013-09-28 07:15:00,
2013-09-28 00:20:00,61.2,43.9,29.95,West,275,0.0,0.0,53,0.00,,,0.00,0,Wunderground v.1.15,2013-09-28 07:20:00,
2013-09-28 00:25:00,61.2,43.9,29.95,West,275,0.0,0.0,53,0.00,,,0.00,0,Wunderground v.1.15,2013-09-28 07:25:00,
2013-09-28 00:31:00,61.1,44.3,29.95,West,275,0.0,0.0,54,0.00,,,0.00,0,Wunderground v.1.15,2013-09-28 07:31:00,
2013-09-28 00:40:00,61.1,43.3,29.95,West,275,0.0,0.0,52,0.00,,,0.00,0,Wunderground v.1.15,2013-09-28 07:40:00,
2013-09-28 00:46:00,61.1,43.3,29.95,West,275,0.0,0.0,52,0.00,,,0.00,0,Wunderground v.1.15,2013-09-28 07:46:00,
2013-09-28 00:55:00,61.1,43.3,29.95,West,275,0.0,0.0,52,0.00,,,0.00,0,Wunderground v.1.15,2013-09-28 07:55:00,
2013-09-28 01:00:00,61.0,42.7,29.95,West,275,0.0,0.0,51,0.00,,,0.00,0,Wunderground v.1.15,2013-09-28 08:00:00,
2013-09-28 01:06:00,60.9,42.6,29.95,West,275,0.0,0.0,51,0.00,,,0.00,0,Wunderground v.1.15,2013-09-28 08:06:00,
2013-09-28 01:15:00,60.7,43.9,29.95,West,275,0.0,0.0,54,0.00,,,0.00,0,Wunderground v.1.15,2013-09-28 08:15:00,
2013-09-28 01:20:00,60.6,43.9,29.95,West,275,0.0,0.0,54,0.00,,,0.00,0,Wunderground v.1.15,2013-09-28 08:20:00,
2013-09-28 01:25:00,60.5,44.2,29.94,West,275,0.0,0.0,55,0.00,,,0.00,0,Wunderground v.1.15,2013-09-28 08:25:00,
2013-09-28 01:35:00,60.0,42.8,29.94,West,275,0.0,0.0,53,0.00,,,0.00,0,Wunderground v.1.15,2013-09-28 08:35:00,
2013-09-28 01:41:00,59.8,42.6,29.94,West,275,0.0,0.0,53,0.00,,,0.00,0,Wunderground v.1.15,2013-09-28 08:41:00,
2013-09-28 01:50:00,59.5,42.3,29.94,West,275,0.0,0.0,53,0.00,,,0.00,0,Wunderground v.1.15,2013-09-28 08:50:00,
2013-09-28 01:55:00,59.3,41.7,29.95,West,275,0.0,0.0,52,0.00,,,0.00,0,Wunderground v.1.15,2013-09-28 08:55:00,
2013-09-28 02:01:00,59.4,42.3,29.94,West,275,0.0,0.0,53,0.00,,,0.00,0,Wunderground v.1.15,2013-09-28 09:01:00,
2013-09-28 02:06:00,59.5,42.8,29.94,West,275,0.0,0.0,54,0.00,,,0.00,0,Wunderground v.1.15,2013-09-28 09:06:00,
2013-09-28 02:15:00,59.5,42.8,29.95,West,275,2.0,2.0,54,0.00,,,0.00,0,Wunderground v.1.15,2013-09-28 09:15:00,
2013-09-28 02:20:00,59.7,43.0,29.95,West,275,0.0,0.0,54,0.00,,,0.00,0,Wunderground v.1.15,2013-09-28 09:20:00,
2013-09-28 02:25:00,59.7,43.5,29.95,West,275,0.0,0.0,55,0.00,,,0.00,0,Wunderground v.1.15,2013-09-28 09:25:00,
2013-09-28 02:31:00,59.5,43.3,29.94,West,275,0.0,0.0,55,0.00,,,0.00,0,Wunderground v.1.15,2013-09-28 09:31:00,
2013-09-28 02:41:00,59.1,42.9,29.94,West,275,0.0,0.0,55,0.00,,,0.00,0,Wunderground v.1.15,2013-09-28 09:41:00,
2013-09-28 02:50:00,58.4,42.8,29.95,West,275,0.0,0.0,56,0.00,,,0.00,0,Wunderground v.1.15,2013-09-28 09:50:00,
2013-09-28 02:55:00,58.3,42.7,29.95,West,275,0.0,0.0,56,0.00,,,0.00,0,Wunderground v.1.15,2013-09-28 09:55:00,
2013-09-28 03:00:00,58.1,42.0,29.95,West,275,0.0,0.0,55,0.00,,,0.00,0,Wunderground v.1.15,2013-09-28 10:00:00,
2013-09-28 03:06:00,58.0,41.4,29.95,West,275,0.0,0.0,54,0.00,,,0.00,0,Wunderground v.1.15,2013-09-28 10:06:00,
2013-09-28 03:15:00,57.8,42.2,29.95,West,275,0.0,0.0,56,0.00,,,0.00,0,Wunderground v.1.15,2013-09-28 10:15:00,
2013-09-28 03:20:00,57.8,41.3,29.94,West,275,0.0,0.0,54,0.00,,,0.00,0,Wunderground v.1.15,2013-09-28 10:20:00,
2013-09-28 03:25:00,58.0,41.9,29.94,West,275,0.0,0.0,55,0.00,,,0.00,0,Wunderground v.1.15,2013-09-28 10:25:00,
2013-09-28 03:30:00,58.0,41.4,29.94,West,275,0.0,0.0,54,0.00,,,0.00,0,Wunderground v.1.15,2013-09-28 10:30:00,
2013-09-28 03:40:00,57.9,41.3,29.94,West,275,0.0,0.0,54,0.00,,,0.00,0,Wunderground v.1.15,2013-09-28 10:40:00,
2013-09-28 03:45:00,58.5,41.4,29.94,West,275,0.0,0.0,53,0.00,,,0.00,0,Wunderground v.1.15,2013-09-28 10:45:00,
2013-09-28 03:50:00,58.7,42.1,29.95,West,275,0.0,0.0,54,0.00,,,0.00,0,Wunderground v.1.15,2013-09-28 10:50:00,
2013-09-28 03:55:00,58.8,44.0,29.95,West,275,0.0,0.0,58,0.00,,,0.00,0,Wunderground v.1.15,2013-09-28 10:55:00,
2013-09-28 04:00:00,58.9,44.6,29.95,West,275,0.0,0.0,59,0.00,,,0.00,0,Wunderground v.1.15,2013-09-28 11:00:00,
2013-09-28 04:06:00,58.9,45.0,29.95,West,275,0.0,0.0,60,0.00,,,0.00,0,Wunderground v.1.15,2013-09-28 11:06:00,
2013-09-28 04:15:00,58.8,45.8,29.94,West,275,0.0,0.0,62,0.00,,,0.00,0,Wunderground v.1.15,2013-09-28 11:15:00,
2013-09-28 04:20:00,58.7,46.1,29.94,West,275,0.0,0.0,63,0.00,,,0.00,0,Wunderground v.1.15,2013-09-28 11:20:00,
2013-09-28 04:25:00,58.6,46.5,29.94,West,275,0.0,0.0,64,0.00,,,0.00,0,Wunderground v.1.15,2013-09-28 11:25:00,
2013-09-28 04:30:00,58.4,46.7,29.95,West,275,0.0,0.0,65,0.00,,,0.00,0,Wunderground v.1.15,2013-09-28 11:30:00,
2013-09-28 04:40:00,58.2,47.3,29.95,West,275,0.0,0.0,67,0.00,,,0.00,0,Wunderground v.1.15,2013-09-28 11:40:00,
2013-09-28 04:50:00,58.0,47.5,29.96,West,275,0.0,0.0,68,0.00,,,0.00,0,Wunderground v.1.15,2013-09-28 11:50:00,
2013-09-28 04:55:00,57.9,48.2,29.96,West,275,0.0,0.0,70,0.00,,,0.00,0,Wunderground v.1.15,2013-09-28 11:55:00,
2013-09-28 05:00:00,57.8,48.1,29.96,West,275,0.0,0.0,70,0.00,,,0.00,0,Wunderground v.1.15,2013-09-28 12:00:00,
2013-09-28 05:06:00,57.8,49.2,29.96,West,275,0.0,0.0,73,0.00,,,0.00,0,Wunderground v.1.15,2013-09-28 12:06:00,
2013-09-28 05:15:00,57.0,46.9,29.96,West,275,0.0,0.0,69,0.00,,,0.00,0,Wunderground v.1.15,2013-09-28 12:15:00,
2013-09-28 05:20:00,56.6,46.2,29.96,West,275,1.0,1.0,68,0.00,,,0.00,0,Wunderground v.1.15,2013-09-28 12:20:00,
2013-09-28 05:25:00,56.4,42.2,29.96,West,275,0.0,1.0,59,0.00,,,0.00,0,Wunderground v.1.15,2013-09-28 12:25:00,
2013-09-28 05:30:00,56.2,41.6,29.96,West,275,0.0,0.0,58,0.00,,,0.00,0,Wunderground v.1.15,2013-09-28 12:30:00,
2013-09-28 05:40:00,56.3,41.3,29.96,West,275,2.0,2.0,57,0.00,,,0.00,0,Wunderground v.1.15,2013-09-28 12:40:00,
2013-09-28 05:45:00,56.5,41.4,29.96,West,275,0.0,2.0,57,0.00,,,0.00,0,Wunderground v.1.15,2013-09-28 12:45:00,
2013-09-28 05:50:00,56.5,41.0,29.96,West,275,0.0,0.0,56,0.00,,,0.00,0,Wunderground v.1.15,2013-09-28 12:50:00,
2013-09-28 06:00:00,56.6,41.1,29.96,West,275,0.0,0.0,56,0.00,,,0.00,0,Wunderground v.1.15,2013-09-28 13:00:00,
2013-09-28 06:06:00,56.4,41.3,29.96,West,275,0.0,0.0,57,0.00,,,0.00,0,Wunderground v.1.15,2013-09-28 13:06:00,
2013-09-28 06:15:00,56.1,42.0,29.96,West,275,0.0,0.0,59,0.00,,,0.00,0,Wunderground v.1.15,2013-09-28 13:15:00,
2013-09-28 06:20:00,55.8,41.2,29.97,West,275,1.0,1.0,58,0.00,,,0.00,0,Wunderground v.1.15,2013-09-28 13:20:00,
2013-09-28 06:26:00,55.6,42.4,29.97,West,275,0.0,1.0,61,0.00,,,0.00,0,Wunderground v.1.15,2013-09-28 13:26:00,
2013-09-28 06:35:00,55.8,42.5,29.97,West,275,0.0,0.0,61,0.00,,,0.00,0,Wunderground v.1.15,2013-09-28 13:35:00,
2013-09-28 06:45:00,56.4,43.1,29.97,West,275,0.0,0.0,61,0.00,,,0.00,0,Wunderground v.1.15,2013-09-28 13:45:00,
2013-09-28 06:50:00,56.6,43.3,29.97,West,275,0.0,0.0,61,0.00,,,0.00,0,Wunderground v.1.15,2013-09-28 13:50:00,
2013-09-28 06:55:00,56.6,42.9,29.97,West,275,0.0,0.0,60,0.00,,,0.00,0,Wunderground v.1.15,2013-09-28 13:55:00,
2013-09-28 07:01:00,56.7,42.5,29.97,West,275,0.0,0.0,59,0.00,,,0.00,0,Wunderground v.1.15,2013-09-28 14:01:00,
2013-09-28 07:06:00,56.7,43.0,29.97,West,275,0.0,0.0,60,0.00,,,0.00,0,Wunderground v.1.15,2013-09-28 14:06:00,
2013-09-28 07:15:00,56.5,42.8,29.97,West,275,0.0,0.0,60,0.00,,,0.00,0,Wunderground v.1.15,2013-09-28 14:15:00,
2013-09-28 07:20:00,56.6,42.9,29.97,West,275,0.0,0.0,60,0.00,,,0.00,0,Wunderground v.1.15,2013-09-28 14:20:00,
2013-09-28 07:30:00,57.0,44.5,29.97,West,275,0.0,0.0,63,0.00,,,0.00,0,Wunderground v.1.15,2013-09-28 14:30:00,
2013-09-28 07:35:00,57.3,44.0,29.98,West,275,0.0,0.0,61,0.00,,,0.00,0,Wunderground v.1.15,2013-09-28 14:35:00,
2013-09-28 07:45:00,57.8,44.9,29.98,West,275,0.0,0.0,62,0.00,,,0.00,0,Wunderground v.1.15,2013-09-28 14:45:00,
2013-09-28 07:50:00,58.1,45.1,29.98,West,275,0.0,0.0,62,0.00,,,0.00,0,Wunderground v.1.15,2013-09-28 14:50:00,
2013-09-28 07:55:00,58.4,45.8,29.98,West,275,0.0,0.0,63,0.00,,,0.00,0,Wunderground v.1.15,2013-09-28 14:55:00,
2013-09-28 08:00:00,58.7,46.1,29.98,West,275,0.0,0.0,63,0.00,,,0.00,0,Wunderground v.1.15,2013-09-28 15:00:00,
2013-09-28 08:06:00,59.1,46.1,29.98,West,275,0.0,0.0,62,0.00,,,0.00,0,Wunderground v.1.15,2013-09-28 15:06:00,
2013-09-28 08:15:00,59.9,46.8,29.98,West,275,0.0,0.0,62,0.00,,,0.00,0,Wunderground v.1.15,2013-09-28 15:15:00,
2013-09-28 08:20:00,60.4,47.7,29.98,West,276,0.0,0.0,63,0.00,,,0.00,0,Wunderground v.1.15,2013-09-28 15:20:00,
2013-09-28 08:25:00,61.1,48.4,29.98,West,275,0.0,0.0,63,0.00,,,0.00,0,Wunderground v.1.15,2013-09-28 15:25:00,
2013-09-28 08:30:00,61.7,48.5,29.98,West,275,0.0,0.0,62,0.00,,,0.00,0,Wunderground v.1.15,2013-09-28 15:30:00,
2013-09-28 08:40:00,62.8,47.8,29.99,West,275,0.0,0.0,58,0.00,,,0.00,0,Wunderground v.1.15,2013-09-28 15:40:00,
2013-09-28 08:45:00,63.3,48.7,29.99,West,275,0.0,0.0,59,0.00,,,0.00,0,Wunderground v.1.15,2013-09-28 15:45:00,
2013-09-28 08:50:00,64.0,48.9,29.99,West,275,0.0,0.0,58,0.00,,,0.00,0,Wunderground v.1.15,2013-09-28 15:50:00,
2013-09-28 08:55:00,64.7,50.5,29.99,West,275,0.0,0.0,60,0.00,,,0.00,0,Wunderground v.1.15,2013-09-28 15:55:00,
2013-09-28 09:06:00,65.7,48.1,29.99,West,275,0.0,0.0,53,0.00,,,0.00,0,Wunderground v.1.15,2013-09-28 16:06:00,
2013-09-28 09:15:00,66.8,50.1,29.99,West,275,0.0,0.0,55,0.00,,,0.00,0,Wunderground v.1.15,2013-09-28 16:15:00,
2013-09-28 09:20:00,67.4,50.7,29.99,WNW,282,3.0,3.0,55,0.00,,,0.00,0,Wunderground v.1.15,2013-09-28 16:20:00,
2013-09-28 09:25:00,68.0,51.2,29.99,WNW,282,0.0,3.0,55,0.00,,,0.00,0,Wunderground v.1.15,2013-09-28 16:25:00,
2013-09-28 09:30:00,68.5,50.7,30.00,WNW,282,0.0,0.0,53,0.00,,,0.00,0,Wunderground v.1.15,2013-09-28 16:30:00,
2013-09-28 09:40:00,69.5,50.0,29.99,WNW,282,0.0,0.0,50,0.00,,,0.00,0,Wunderground v.1.15,2013-09-28 16:40:00,
2013-09-28 09:45:00,69.9,50.4,30.00,WNW,282,0.0,0.0,50,0.00,,,0.00,0,Wunderground v.1.15,2013-09-28 16:45:00,
2013-09-28 09:51:00,70.6,49.4,30.00,WNW,282,0.0,0.0,47,0.00,,,0.00,0,Wunderground v.1.15,2013-09-28 16:51:00,
2013-09-28 10:00:00,72.3,50.9,30.00,WNW,282,0.0,0.0,47,0.00,,,0.00,0,Wunderground v.1.15,2013-09-28 17:00:00,
2013-09-28 10:05:00,73.0,51.0,29.99,WNW,282,0.0,0.0,46,0.00,,,0.00,0,Wunderground v.1.15,2013-09-28 17:05:00,
2013-09-28 10:15:00,75.2,51.8,29.99,WNW,282,0.0,0.0,44,0.00,,,0.00,0,Wunderground v.1.15,2013-09-28 17:15:00,
2013-09-28 10:21:00,76.2,52.7,29.99,WNW,282,0.0,0.0,44,0.00,,,0.00,0,Wunderground v.1.15,2013-09-28 17:21:00,
2013-09-28 10:30:00,77.5,51.9,29.99,WNW,284,0.0,0.0,41,0.00,,,0.00,0,Wunderground v.1.15,2013-09-28 17:30:00,
2013-09-28 10:40:00,78.7,53.0,29.99,WNW,285,2.0,2.0,41,0.00,,,0.00,0,Wunderground v.1.15,2013-09-28 17:40:00,
2013-09-28 10:45:00,79.4,53.0,29.99,WNW,284,0.0,2.0,40,0.00,,,0.00,0,Wunderground v.1.15,2013-09-28 17:45:00,
2013-09-28 10:50:00,80.1,53.6,29.99,WNW,284,0.0,0.0,40,0.00,,,0.00,0,Wunderground v.1.15,2013-09-28 17:50:00,
2013-09-28 10:55:00,80.8,52.8,29.98,WNW,291,0.0,0.0,38,0.00,,,0.00,0,Wunderground v.1.15,2013-09-28 17:55:00,
2013-09-28 11:00:00,81.5,51.2,29.98,WNW,291,0.0,0.0,35,0.00,,,0.00,0,Wunderground v.1.15,2013-09-28 18:00:00,
2013-09-28 11:06:00,82.4,54.2,29.99,West,276,1.0,1.0,38,0.00,,,0.00,0,Wunderground v.1.15,2013-09-28 18:06:00,
2013-09-28 11:15:00,83.2,55.0,29.98,West,276,0.0,1.0,38,0.00,,,0.00,0,Wunderground v.1.15,2013-09-28 18:15:00,
2013-09-28 11:20:00,83.4,55.1,29.99,West,277,0.0,0.0,38,0.00,,,0.00,0,Wunderground v.1.15,2013-09-28 18:20:00,
2013-09-28 11:25:00,83.8,55.5,29.98,West,275,2.0,2.0,38,0.00,,,0.00,0,Wunderground v.1.15,2013-09-28 18:25:00,
2013-09-28 11:35:00,82.4,54.2,29.98,South,182,0.0,6.0,38,0.00,,,0.00,0,Wunderground v.1.15,2013-09-28 18:35:00,
2013-09-28 11:45:00,82.9,56.1,29.98,NW,312,0.0,0.0,40,0.00,,,0.00,0,Wunderground v.1.15,2013-09-28 18:45:00,
2013-09-28 11:50:00,83.3,56.5,29.98,SW,232,0.0,0.0,40,0.00,,,0.00,0,Wunderground v.1.15,2013-09-28 18:50:00,
2013-09-28 11:55:00,83.6,56.0,29.98,NW,314,0.0,0.0,39,0.00,,,0.00,0,Wunderground v.1.15,2013-09-28 18:55:00,
2013-09-28 12:00:00,83.9,56.3,29.98,SSW,204,0.0,0.0,39,0.00,,,0.00,0,Wunderground v.1.15,2013-09-28 19:00:00,
2013-09-28 12:05:00,83.8,55.5,29.98,SW,223,6.0,6.0,38,0.00,,,0.00,0,Wunderground v.1.15,2013-09-28 19:05:00,
2013-09-28 12:15:00,83.7,55.4,29.98,NNW,328,0.0,0.0,38,0.00,,,0.00,0,Wunderground v.1.15,2013-09-28 19:15:00,
2013-09-28 12:21:00,83.5,55.2,29.98,SW,219,0.0,0.0,38,0.00,,,0.00,0,Wunderground v.1.15,2013-09-28 19:21:00,
2013-09-28 12:30:00,83.4,55.8,29.98,NW,305,2.0,2.0,39,0.00,,,0.00,0,Wunderground v.1.15,2013-09-28 19:30:00,
2013-09-28 12:40:00,83.7,56.1,29.97,WNW,299,0.0,0.0,39,0.00,,,0.00,0,Wunderground v.1.15,2013-09-28 19:40:00,
2013-09-28 12:45:00,84.1,56.5,29.97,NW,309,0.0,0.0,39,0.00,,,0.00,0,Wunderground v.1.15,2013-09-28 19:45:00,
2013-09-28 12:50:00,84.5,56.1,29.97,NW,314,0.0,0.0,38,0.00,,,0.00,0,Wunderground v.1.15,2013-09-28 19:50:00,
2013-09-28 12:55:00,85.0,56.5,29.97,West,265,0.0,0.0,38,0.00,,,0.00,0,Wunderground v.1.15,2013-09-28 19:55:00,
2013-09-28 13:06:00,84.9,56.5,29.97,SW,228,2.0,2.0,38,0.00,,,0.00,0,Wunderground v.1.15,2013-09-28 20:06:00,
2013-09-28 13:15:00,83.2,56.4,29.96,NNW,334,4.0,4.0,40,0.00,,,0.00,0,Wunderground v.1.15,2013-09-28 20:15:00,
2013-09-28 13:25:00,83.5,57.3,29.96,South,180,5.0,5.0,41,0.00,,,0.00,0,Wunderground v.1.15,2013-09-28 20:25:00,
2013-09-28 13:31:00,82.9,56.8,29.96,South,175,6.0,6.0,41,0.00,,,0.00,0,Wunderground v.1.15,2013-09-28 20:31:00,
2013-09-28 13:40:00,83.8,56.2,29.95,NNW,330,1.0,1.0,39,0.00,,,0.00,0,Wunderground v.1.15,2013-09-28 20:40:00,
2013-09-28 13:50:00,84.2,55.8,29.95,SSE,167,0.0,0.0,38,0.00,,,0.00,0,Wunderground v.1.15,2013-09-28 20:50:00,
2013-09-28 13:55:00,84.1,55.7,29.95,NW,314,5.0,5.0,38,0.00,,,0.00,0,Wunderground v.1.15,2013-09-28 20:55:00,
2013-09-28 14:00:00,84.3,55.9,29.94,NW,306,0.0,0.0,38,0.00,,,0.00,0,Wunderground v.1.15,2013-09-28 21:00:00,
2013-09-28 14:05:00,84.4,56.0,29.95,WNW,301,3.0,3.0,38,0.00,,,0.00,0,Wunderground v.1.15,2013-09-28 21:05:00,
2013-09-28 14:16:00,84.5,56.1,29.94,North,10,0.0,0.0,38,0.00,,,0.00,0,Wunderground v.1.15,2013-09-28 21:16:00,
2013-09-28 14:25:00,84.4,56.0,29.94,South,180,0.0,0.0,38,0.00,,,0.00,0,Wunderground v.1.15,2013-09-28 21:25:00,
2013-09-28 14:30:00,84.6,56.2,29.94,WNW,293,2.0,2.0,38,0.00,,,0.00,0,Wunderground v.1.15,2013-09-28 21:30:00,
2013-09-28 14:40:00,85.4,56.9,29.94,SW,222,0.0,0.0,38,0.00,,,0.00,0,Wunderground v.1.15,2013-09-28 21:40:00,
2013-09-28 14:45:00,84.9,55.0,29.93,West,280,2.0,2.0,36,0.00,,,0.00,0,Wunderground v.1.15,2013-09-28 21:45:00,
2013-09-28 14:50:00,84.6,55.5,29.93,SSE,167,1.0,1.0,37,0.00,,,0.00,0,Wunderground v.1.15,2013-09-28 21:50:00,
2013-09-28 15:00:00,82.9,54.7,29.93,SSW,200,6.0,6.0,38,0.00,,,0.00,0,Wunderground v.1.15,2013-09-28 22:00:00,
2013-09-28 15:06:00,82.9,54.7,29.93,WSW,238,7.0,7.0,38,0.00,,,0.00,0,Wunderground v.1.15,2013-09-28 22:06:00,
2013-09-28 15:15:00,84.3,55.9,29.93,SW,217,0.0,0.0,38,0.00,,,0.00,0,Wunderground v.1.15,2013-09-28 22:15:00,
2013-09-28 15:25:00,84.0,54.9,29.93,WSW,247,0.0,5.0,37,0.00,,,0.00,0,Wunderground v.1.15,2013-09-28 22:25:00,
2013-09-28 15:30:00,84.5,54.6,29.93,SSW,213,0.0,0.0,36,0.00,,,0.00,0,Wunderground v.1.15,2013-09-28 22:30:00,
2013-09-28 15:40:00,84.2,54.4,29.93,SW,227,3.0,3.0,36,0.00,,,0.00,0,Wunderground v.1.15,2013-09-28 22:40:00,
2013-09-28 15:45:00,84.0,54.2,29.93,NW,310,0.0,3.0,36,0.00,,,0.00,0,Wunderground v.1.15,2013-09-28 22:45:00,
2013-09-28 15:55:00,85.1,55.1,29.92,NW,310,0.0,1.0,36,0.00,,,0.00,0,Wunderground v.1.15,2013-09-28 22:55:00,
2013-09-28 16:00:00,86.1,56.8,29.92,WNW,291,0.0,0.0,37,0.00,,,0.00,0,Wunderground v.1.15,2013-09-28 23:00:00,
2013-09-28 16:05:00,87.1,56.9,29.92,ENE,71,0.0,0.0,36,0.00,,,0.00,0,Wunderground v.1.15,2013-09-28 23:05:00,
2013-09-28 16:10:00,87.3,57.1,29.92,North,0,0.0,0.0,36,0.00,,,0.00,0,Wunderground v.1.15,2013-09-28 23:10:00,
2013-09-28 16:20:00,86.8,56.6,29.92,West,259,0.0,0.0,36,0.00,,,0.00,0,Wunderground v.1.15,2013-09-28 23:20:00,
2013-09-28 16:25:00,86.2,56.1,29.92,South,183,0.0,0.0,36,0.00,,,0.00,0,Wunderground v.1.15,2013-09-28 23:25:00,
2013-09-28 16:35:00,87.0,56.8,29.92,NNW,328,1.0,1.0,36,0.00,,,0.00,0,Wunderground v.1.15,2013-09-28 23:35:00,
2013-09-28 16:45:00,86.8,56.6,29.92,WSW,243,4.0,4.0,36,0.00,,,0.00,0,Wunderground v.1.15,2013-09-28 23:45:00,
2013-09-28 16:50:00,86.6,56.5,29.92,NW,323,4.0,4.0,36,0.00,,,0.00,0,Wunderground v.1.15,2013-09-28 23:50:00,
2013-09-28 16:55:00,86.6,56.5,29.92,NNW,327,4.0,4.0,36,0.00,,,0.00,0,Wunderground v.1.15,2013-09-28 23:55:00,
2013-09-28 17:00:00,86.3,56.2,29.92,NNW,345,1.0,1.0,36,0.00,,,0.00,0,Wunderground v.1.15,2013-09-29 00:00:00,
2013-09-28 17:06:00,86.2,56.1,29.92,WNW,297,0.0,1.0,36,0.00,,,0.00,0,Wunderground v.1.15,2013-09-29 00:06:00,
2013-09-28 17:15:00,86.1,56.0,29.92,NW,308,5.0,5.0,36,0.00,,,0.00,0,Wunderground v.1.15,2013-09-29 00:15:00,
2013-09-28 17:20:00,85.5,55.5,29.92,NNW,330,0.0,0.0,36,0.00,,,0.00,0,Wunderground v.1.15,2013-09-29 00:20:00,
2013-09-28 17:25:00,85.6,55.6,29.92,NW,317,0.0,0.0,36,0.00,,,0.00,0,Wunderground v.1.15,2013-09-29 00:25:00,
2013-09-28 17:30:00,85.4,55.4,29.92,NNW,345,2.0,2.0,36,0.00,,,0.00,0,Wunderground v.1.15,2013-09-29 00:30:00,
2013-09-28 17:40:00,85.7,56.4,29.92,NNW,333,4.0,4.0,37,0.00,,,0.00,0,Wunderground v.1.15,2013-09-29 00:40:00,
2013-09-28 17:45:00,85.9,55.8,29.92,East,91,0.0,4.0,36,0.00,,,0.00,0,Wunderground v.1.15,2013-09-29 00:45:00,
2013-09-28 17:50:00,86.1,56.8,29.92,NNW,338,2.0,2.0,37,0.00,,,0.00,0,Wunderground v.1.15,2013-09-29 00:50:00,
2013-09-28 17:55:00,86.2,56.9,29.92,NNW,342,2.0,2.0,37,0.00,,,0.00,0,Wunderground v.1.15,2013-09-29 00:55:00,
2013-09-28 18:06:00,84.9,56.5,29.92,NW,306,0.0,0.0,38,0.00,,,0.00,0,Wunderground v.1.15,2013-09-29 01:06:00,
2013-09-28 18:15:00,83.4,56.5,29.93,NW,306,0.0,0.0,40,0.00,,,0.00,0,Wunderground v.1.15,2013-09-29 01:15:00,
2013-09-28 18:20:00,82.6,55.1,29.92,NW,306,0.0,0.0,39,0.00,,,0.00,0,Wunderground v.1.15,2013-09-29 01:20:00,
2013-09-28 18:25:00,81.8,55.8,29.93,NW,306,0.0,0.0,41,0.00,,,0.00,0,Wunderground v.1.15,2013-09-29 01:25:00,
2013-09-28 18:35:00,80.1,54.3,29.93,NW,306,0.0,0.0,41,0.00,,,0.00,0,Wunderground v.1.15,2013-09-29 01:35:00,
2013-09-28 18:45:00,78.9,53.9,29.93,NW,306,0.0,0.0,42,0.00,,,0.00,0,Wunderground v.1.15,2013-09-29 01:45:00,
2013-09-28 18:50:00,78.3,54.0,29.93,NW,306,0.0,0.0,43,0.00,,,0.00,0,Wunderground v.1.15,2013-09-29 01:50:00,
2013-09-28 18:55:00,77.4,53.8,29.94,NW,306,3.0,3.0,44,0.00,,,0.00,0,Wunderground v.1.15,2013-09-29 01:55:00,
2013-09-28 19:00:00,76.5,53.0,29.93,NW,306,1.0,1.0,44,0.00,,,0.00,0,Wunderground v.1.15,2013-09-29 02:00:00,
2013-09-28 19:06:00,75.7,52.2,29.93,NW,309,1.0,1.0,44,0.00,,,0.00,0,Wunderground v.1.15,2013-09-29 02:06:00,
2013-09-28 19:15:00,74.8,52.0,29.94,NW,309,0.0,0.0,45,0.00,,,0.00,0,Wunderground v.1.15,2013-09-29 02:15:00,
2013-09-28 19:20:00,74.4,51.7,29.94,NW,311,0.0,0.0,45,0.00,,,0.00,0,Wunderground v.1.15,2013-09-29 02:20:00,
2013-09-28 19:30:00,73.7,51.0,29.94,NW,311,0.0,0.0,45,0.00,,,0.00,0,Wunderground v.1.15,2013-09-29 02:30:00,
2013-09-28 19:36:00,73.4,50.2,29.94,NW,311,0.0,0.0,44,0.00,,,0.00,0,Wunderground v.1.15,2013-09-29 02:36:00,
2013-09-28 19:45:00,72.8,51.4,29.95,NW,311,0.0,1.0,47,0.00,,,0.00,0,Wunderground v.1.15,2013-09-29 02:45:00,
2013-09-28 19:50:00,72.6,52.3,29.95,NW,311,0.0,0.0,49,0.00,,,0.00,0,Wunderground v.1.15,2013-09-29 02:50:00,
2013-09-28 20:00:00,72.4,51.6,29.96,NW,311,0.0,0.0,48,0.00,,,0.00,0,Wunderground v.1.15,2013-09-29 03:00:00,
2013-09-28 20:05:00,72.2,52.0,29.95,NW,311,1.0,1.0,49,0.00,,,0.00,0,Wunderground v.1.15,2013-09-29 03:05:00,
2013-09-28 20:15:00,71.9,51.7,29.96,NW,311,0.0,0.0,49,0.00,,,0.00,0,Wunderground v.1.15,2013-09-29 03:15:00,
2013-09-28 20:20:00,71.8,51.0,29.96,NW,311,0.0,0.0,48,0.00,,,0.00,0,Wunderground v.1.15,2013-09-29 03:20:00,
2013-09-28 20:25:00,71.7,51.5,29.96,NW,311,3.0,3.0,49,0.00,,,0.00,0,Wunderground v.1.15,2013-09-29 03:25:00,
2013-09-28 20:35:00,71.3,51.1,29.97,NW,311,3.0,3.0,49,0.00,,,0.00,0,Wunderground v.1.15,2013-09-29 03:35:00,
2013-09-28 20:40:00,71.1,50.4,29.97,NW,311,0.0,0.0,48,0.00,,,0.00,0,Wunderground v.1.15,2013-09-29 03:40:00,
2013-09-28 20:50:00,70.8,50.1,29.97,NW,311,0.0,0.0,48,0.00,,,0.00,0,Wunderground v.1.15,2013-09-29 03:50:00,
2013-09-28 20:55:00,70.6,50.0,29.97,NW,311,0.0,0.0,48,0.00,,,0.00,0,Wunderground v.1.15,2013-09-29 03:55:00,
2013-09-28 21:06:00,70.2,50.1,29.98,NW,311,0.0,0.0,49,0.00,,,0.00,0,Wunderground v.1.15,2013-09-29 04:06:00,
2013-09-28 21:15:00,69.9,49.9,29.98,NW,311,0.0,0.0,49,0.00,,,0.00,0,Wunderground v.1.15,2013-09-29 04:15:00,
2013-09-28 21:21:00,69.7,50.2,29.98,NW,311,0.0,0.0,50,0.00,,,0.00,0,Wunderground v.1.15,2013-09-29 04:21:00,
2013-09-28 21:30:00,69.3,49.9,29.99,NW,311,0.0,0.0,50,0.00,,,0.00,0,Wunderground v.1.15,2013-09-29 04:30:00,
2013-09-28 21:40:00,68.9,50.0,29.99,NW,311,0.0,0.0,51,0.00,,,0.00,0,Wunderground v.1.15,2013-09-29 04:40:00,
2013-09-28 21:45:00,68.6,49.7,29.99,NW,311,0.0,0.0,51,0.00,,,0.00,0,Wunderground v.1.15,2013-09-29 04:45:00,
2013-09-28 21:50:00,68.3,50.0,29.99,NW,311,0.0,0.0,52,0.00,,,0.00,0,Wunderground v.1.15,2013-09-29 04:50:00,
2013-09-28 21:55:00,68.1,49.8,30.00,NW,311,0.0,0.0,52,0.00,,,0.00,0,Wunderground v.1.15,2013-09-29 04:55:00,
2013-09-28 22:06:00,67.6,49.9,30.00,NW,311,0.0,0.0,53,0.00,,,0.00,0,Wunderground v.1.15,2013-09-29 05:06:00,
2013-09-28 22:15:00,67.2,49.5,30.00,NW,311,0.0,0.0,53,0.00,,,0.00,0,Wunderground v.1.15,2013-09-29 05:15:00,
2013-09-28 22:20:00,67.0,50.3,30.00,NW,311,0.0,0.0,55,0.00,,,0.00,0,Wunderground v.1.15,2013-09-29 05:20:00,
2013-09-28 22:25:00,66.9,49.7,30.00,NW,311,0.0,0.0,54,0.00,,,0.00,0,Wunderground v.1.15,2013-09-29 05:25:00,
2013-09-28 22:35:00,66.7,49.5,30.00,NW,311,0.0,0.0,54,0.00,,,0.00,0,Wunderground v.1.15,2013-09-29 05:35:00,
2013-09-28 22:45:00,66.5,49.8,30.01,NW,311,0.0,0.0,55,0.00,,,0.00,0,Wunderground v.1.15,2013-09-29 05:45:00,
2013-09-28 22:50:00,66.3,49.2,30.01,NW,311,0.0,0.0,54,0.00,,,0.00,0,Wunderground v.1.15,2013-09-29 05:50:00,
2013-09-28 22:55:00,66.1,49.5,30.01,NW,311,0.0,0.0,55,0.00,,,0.00,0,Wunderground v.1.15,2013-09-29 05:55:00,
2013-09-28 23:06:00,65.6,49.0,30.01,NW,311,0.0,0.0,55,0.00,,,0.00,0,Wunderground v.1.15,2013-09-29 06:06:00,
2013-09-28 23:15:00,65.4,49.3,30.01,NW,311,0.0,0.0,56,0.00,,,0.00,0,Wunderground v.1.15,2013-09-29 06:15:00,
2013-09-28 23:21:00,65.1,49.5,30.01,NW,311,0.0,0.0,57,0.00,,,0.00,0,Wunderground v.1.15,2013-09-29 06:21:00,
2013-09-28 23:30:00,64.9,49.8,30.01,NW,311,0.0,0.0,58,0.00,,,0.00,0,Wunderground v.1.15,2013-09-29 06:30:00,
2013-09-28 23:35:00,64.8,50.1,30.01,NW,311,0.0,0.0,59,0.00,,,0.00,0,Wunderground v.1.15,2013-09-29 06:35:00,
2013-09-28 23:40:00,64.7,50.5,30.01,NW,311,0.0,0.0,60,0.00,,,0.00,0,Wunderground v.1.15,2013-09-29 06:40:00,
2013-09-28 23:45:00,64.6,51.7,30.01,NW,311,0.0,0.0,63,0.00,,,0.00,0,Wunderground v.1.15,2013-09-29 06:45:00,
2013-09-28 23:50:00,64.5,48.9,30.01,NW,311,0.0,0.0,57,0.00,,,0.00,0,Wunderground v.1.15,2013-09-29 06:50:00,